sensor_id;sensor_type;location;lat;lon;timestamp;P1;durP1;ratioP1;P2;durP2;ratioP2
12312;SDS011;6220;53.580;9.758;2023-04-29T00:00:34;10.93;;;9.23;;
12312;SDS011;6220;53.580;9.758;2023-04-29T00:03:00;10.73;;;9.50;;
12312;SDS011;6220;53.580;9.758;2023-04-29T00:05:26;10.60;;;9.40;;
12312;SDS011;6220;53.580;9.758;2023-04-29T00:07:51;12.70;;;9.80;;
12312;SDS011;6220;53.580;9.758;2023-04-29T00:10:17;12.23;;;9.87;;
12312;SDS011;6220;53.580;9.758;2023-04-29T00:12:42;12.70;;;9.67;;
12312;SDS011;6220;53.580;9.758;2023-04-29T00:15:07;12.50;;;9.43;;
12312;SDS011;6220;53.580;9.758;2023-04-29T00:17:33;10.67;;;8.67;;
12312;SDS011;6220;53.580;9.758;2023-04-29T00:19:59;11.07;;;9.07;;
12312;SDS011;6220;53.580;9.758;2023-04-29T00:22:24;11.57;;;9.10;;
12312;SDS011;6220;53.580;9.758;2023-04-29T00:24:50;11.80;;;9.77;;
12312;SDS011;6220;53.580;9.758;2023-04-29T00:27:15;13.03;;;9.33;;
12312;SDS011;6220;53.580;9.758;2023-04-29T00:29:41;12.00;;;9.43;;
12312;SDS011;6220;53.580;9.758;2023-04-29T00:32:07;14.17;;;10.47;;
12312;SDS011;6220;53.580;9.758;2023-04-29T00:34:32;13.80;;;10.13;;
12312;SDS011;6220;53.580;9.758;2023-04-29T00:36:58;12.00;;;9.40;;
12312;SDS011;6220;53.580;9.758;2023-04-29T00:39:23;11.27;;;9.63;;
12312;SDS011;6220;53.580;9.758;2023-04-29T00:41:51;12.90;;;8.87;;
12312;SDS011;6220;53.580;9.758;2023-04-29T00:44:17;11.83;;;9.23;;
12312;SDS011;6220;53.580;9.758;2023-04-29T00:46:42;10.97;;;9.33;;
12312;SDS011;6220;53.580;9.758;2023-04-29T00:49:08;11.47;;;8.70;;
12312;SDS011;6220;53.580;9.758;2023-04-29T00:51:35;12.30;;;9.50;;
12312;SDS011;6220;53.580;9.758;2023-04-29T00:54:02;12.67;;;8.83;;
12312;SDS011;6220;53.580;9.758;2023-04-29T00:56:28;10.67;;;9.17;;
12312;SDS011;6220;53.580;9.758;2023-04-29T00:58:56;13.30;;;8.93;;
12312;SDS011;6220;53.580;9.758;2023-04-29T01:01:22;12.00;;;9.03;;
12312;SDS011;6220;53.580;9.758;2023-04-29T01:03:48;10.63;;;8.60;;
12312;SDS011;6220;53.580;9.758;2023-04-29T01:06:23;10.80;;;8.83;;
12312;SDS011;6220;53.580;9.758;2023-04-29T01:12:40;12.00;;;8.80;;
12312;SDS011;6220;53.580;9.758;2023-04-29T01:15:21;11.37;;;8.30;;
12312;SDS011;6220;53.580;9.758;2023-04-29T01:20:32;11.67;;;8.30;;
12312;SDS011;6220;53.580;9.758;2023-04-29T01:22:58;11.17;;;8.93;;
12312;SDS011;6220;53.580;9.758;2023-04-29T01:25:25;10.03;;;8.63;;
12312;SDS011;6220;53.580;9.758;2023-04-29T01:27:56;10.70;;;8.83;;
12312;SDS011;6220;53.580;9.758;2023-04-29T01:38:33;10.97;;;8.70;;
12312;SDS011;6220;53.580;9.758;2023-04-29T01:41:18;11.07;;;9.60;;
12312;SDS011;6220;53.580;9.758;2023-04-29T01:43:50;12.10;;;9.00;;
12312;SDS011;6220;53.580;9.758;2023-04-29T01:46:17;12.87;;;9.50;;
12312;SDS011;6220;53.580;9.758;2023-04-29T01:48:45;11.23;;;8.93;;
12312;SDS011;6220;53.580;9.758;2023-04-29T01:51:11;10.63;;;9.53;;
12312;SDS011;6220;53.580;9.758;2023-04-29T01:53:37;10.17;;;9.07;;
12312;SDS011;6220;53.580;9.758;2023-04-29T01:56:04;13.83;;;9.43;;
12312;SDS011;6220;53.580;9.758;2023-04-29T01:58:31;12.63;;;9.37;;
12312;SDS011;6220;53.580;9.758;2023-04-29T02:00:57;11.57;;;10.37;;
12312;SDS011;6220;53.580;9.758;2023-04-29T02:03:23;14.70;;;9.97;;
12312;SDS011;6220;53.580;9.758;2023-04-29T02:05:49;13.37;;;10.10;;
12312;SDS011;6220;53.580;9.758;2023-04-29T02:08:15;13.97;;;10.30;;
12312;SDS011;6220;53.580;9.758;2023-04-29T02:10:53;13.10;;;9.87;;
12312;SDS011;6220;53.580;9.758;2023-04-29T02:13:21;14.13;;;10.33;;
12312;SDS011;6220;53.580;9.758;2023-04-29T02:15:47;15.33;;;10.43;;
12312;SDS011;6220;53.580;9.758;2023-04-29T02:18:13;14.97;;;11.30;;
12312;SDS011;6220;53.580;9.758;2023-04-29T02:20:38;12.03;;;10.70;;
12312;SDS011;6220;53.580;9.758;2023-04-29T02:23:04;12.40;;;10.57;;
12312;SDS011;6220;53.580;9.758;2023-04-29T02:25:29;14.53;;;10.63;;
12312;SDS011;6220;53.580;9.758;2023-04-29T02:27:55;14.23;;;10.30;;
12312;SDS011;6220;53.580;9.758;2023-04-29T02:30:20;15.50;;;10.63;;
12312;SDS011;6220;53.580;9.758;2023-04-29T02:32:45;12.97;;;10.97;;
12312;SDS011;6220;53.580;9.758;2023-04-29T02:35:11;18.10;;;12.27;;
12312;SDS011;6220;53.580;9.758;2023-04-29T02:37:36;15.60;;;11.80;;
12312;SDS011;6220;53.580;9.758;2023-04-29T02:40:02;15.00;;;11.33;;
12312;SDS011;6220;53.580;9.758;2023-04-29T02:42:28;15.90;;;12.07;;
12312;SDS011;6220;53.580;9.758;2023-04-29T02:44:53;13.23;;;11.13;;
12312;SDS011;6220;53.580;9.758;2023-04-29T02:47:19;13.70;;;10.80;;
12312;SDS011;6220;53.580;9.758;2023-04-29T02:49:44;14.40;;;11.17;;
12312;SDS011;6220;53.580;9.758;2023-04-29T02:52:10;12.37;;;11.10;;
12312;SDS011;6220;53.580;9.758;2023-04-29T02:54:36;13.00;;;11.10;;
12312;SDS011;6220;53.580;9.758;2023-04-29T02:57:02;14.67;;;11.57;;
12312;SDS011;6220;53.580;9.758;2023-04-29T02:59:27;14.03;;;10.97;;
12312;SDS011;6220;53.580;9.758;2023-04-29T03:01:52;16.70;;;11.87;;
12312;SDS011;6220;53.580;9.758;2023-04-29T03:04:18;15.60;;;11.03;;
12312;SDS011;6220;53.580;9.758;2023-04-29T03:06:44;14.13;;;10.47;;
12312;SDS011;6220;53.580;9.758;2023-04-29T03:09:09;14.20;;;11.10;;
12312;SDS011;6220;53.580;9.758;2023-04-29T03:11:36;14.60;;;11.20;;
12312;SDS011;6220;53.580;9.758;2023-04-29T03:14:02;14.03;;;11.47;;
12312;SDS011;6220;53.580;9.758;2023-04-29T03:16:27;13.70;;;11.50;;
12312;SDS011;6220;53.580;9.758;2023-04-29T03:18:53;12.60;;;11.30;;
12312;SDS011;6220;53.580;9.758;2023-04-29T03:21:18;15.60;;;11.33;;
12312;SDS011;6220;53.580;9.758;2023-04-29T03:23:44;14.40;;;12.00;;
12312;SDS011;6220;53.580;9.758;2023-04-29T03:26:09;14.03;;;11.30;;
12312;SDS011;6220;53.580;9.758;2023-04-29T03:28:35;12.83;;;10.90;;
12312;SDS011;6220;53.580;9.758;2023-04-29T03:31:00;15.87;;;11.40;;
12312;SDS011;6220;53.580;9.758;2023-04-29T03:33:26;12.00;;;10.37;;
12312;SDS011;6220;53.580;9.758;2023-04-29T03:35:51;14.27;;;11.53;;
12312;SDS011;6220;53.580;9.758;2023-04-29T03:38:17;16.07;;;10.93;;
12312;SDS011;6220;53.580;9.758;2023-04-29T03:40:42;13.80;;;11.03;;
12312;SDS011;6220;53.580;9.758;2023-04-29T03:43:09;13.60;;;10.40;;
12312;SDS011;6220;53.580;9.758;2023-04-29T03:45:34;15.10;;;11.57;;
12312;SDS011;6220;53.580;9.758;2023-04-29T03:48:00;14.93;;;11.40;;
12312;SDS011;6220;53.580;9.758;2023-04-29T03:50:26;12.03;;;10.73;;
12312;SDS011;6220;53.580;9.758;2023-04-29T03:52:52;12.50;;;10.80;;
12312;SDS011;6220;53.580;9.758;2023-04-29T03:55:17;14.43;;;11.17;;
12312;SDS011;6220;53.580;9.758;2023-04-29T03:57:42;13.40;;;11.37;;
12312;SDS011;6220;53.580;9.758;2023-04-29T04:00:08;11.47;;;10.27;;
12312;SDS011;6220;53.580;9.758;2023-04-29T04:02:34;13.63;;;11.17;;
12312;SDS011;6220;53.580;9.758;2023-04-29T04:05:00;13.83;;;11.90;;
12312;SDS011;6220;53.580;9.758;2023-04-29T04:07:25;12.70;;;11.13;;
12312;SDS011;6220;53.580;9.758;2023-04-29T04:09:51;13.87;;;11.70;;
12312;SDS011;6220;53.580;9.758;2023-04-29T04:12:16;13.17;;;11.80;;
12312;SDS011;6220;53.580;9.758;2023-04-29T04:14:42;15.83;;;11.33;;
12312;SDS011;6220;53.580;9.758;2023-04-29T04:17:07;16.70;;;11.77;;
12312;SDS011;6220;53.580;9.758;2023-04-29T04:19:32;16.20;;;11.60;;
12312;SDS011;6220;53.580;9.758;2023-04-29T04:21:58;13.20;;;11.53;;
12312;SDS011;6220;53.580;9.758;2023-04-29T04:24:23;13.03;;;11.73;;
12312;SDS011;6220;53.580;9.758;2023-04-29T04:26:49;13.30;;;11.73;;
12312;SDS011;6220;53.580;9.758;2023-04-29T04:29:14;12.80;;;11.50;;
12312;SDS011;6220;53.580;9.758;2023-04-29T04:31:39;15.40;;;11.97;;
12312;SDS011;6220;53.580;9.758;2023-04-29T04:34:05;16.07;;;11.30;;
12312;SDS011;6220;53.580;9.758;2023-04-29T04:36:30;16.87;;;12.50;;
12312;SDS011;6220;53.580;9.758;2023-04-29T04:38:56;14.43;;;10.73;;
12312;SDS011;6220;53.580;9.758;2023-04-29T04:41:22;13.43;;;12.13;;
12312;SDS011;6220;53.580;9.758;2023-04-29T04:43:48;14.23;;;11.77;;
12312;SDS011;6220;53.580;9.758;2023-04-29T04:46:13;15.30;;;12.80;;
12312;SDS011;6220;53.580;9.758;2023-04-29T04:48:39;13.07;;;11.37;;
12312;SDS011;6220;53.580;9.758;2023-04-29T04:51:11;17.57;;;11.50;;
12312;SDS011;6220;53.580;9.758;2023-04-29T04:53:37;17.33;;;11.83;;
12312;SDS011;6220;53.580;9.758;2023-04-29T04:56:03;14.43;;;11.47;;
12312;SDS011;6220;53.580;9.758;2023-04-29T04:58:29;14.33;;;11.20;;
12312;SDS011;6220;53.580;9.758;2023-04-29T05:00:58;15.10;;;11.07;;
12312;SDS011;6220;53.580;9.758;2023-04-29T05:03:24;14.13;;;12.17;;
12312;SDS011;6220;53.580;9.758;2023-04-29T05:05:56;17.87;;;12.27;;
12312;SDS011;6220;53.580;9.758;2023-04-29T05:08:22;15.13;;;11.63;;
12312;SDS011;6220;53.580;9.758;2023-04-29T05:10:48;13.27;;;11.77;;
12312;SDS011;6220;53.580;9.758;2023-04-29T05:13:13;13.23;;;11.63;;
12312;SDS011;6220;53.580;9.758;2023-04-29T05:15:39;14.17;;;11.93;;
12312;SDS011;6220;53.580;9.758;2023-04-29T05:18:04;13.60;;;12.03;;
12312;SDS011;6220;53.580;9.758;2023-04-29T05:20:30;14.93;;;11.27;;
12312;SDS011;6220;53.580;9.758;2023-04-29T05:22:55;15.27;;;11.03;;
12312;SDS011;6220;53.580;9.758;2023-04-29T05:25:20;14.10;;;11.63;;
12312;SDS011;6220;53.580;9.758;2023-04-29T05:27:46;14.20;;;11.97;;
12312;SDS011;6220;53.580;9.758;2023-04-29T05:30:11;16.93;;;12.20;;
12312;SDS011;6220;53.580;9.758;2023-04-29T05:32:37;14.07;;;10.83;;
12312;SDS011;6220;53.580;9.758;2023-04-29T05:35:02;16.53;;;10.93;;
12312;SDS011;6220;53.580;9.758;2023-04-29T05:37:28;12.73;;;11.13;;
12312;SDS011;6220;53.580;9.758;2023-04-29T05:39:56;13.53;;;10.93;;
12312;SDS011;6220;53.580;9.758;2023-04-29T05:42:21;15.47;;;11.00;;
12312;SDS011;6220;53.580;9.758;2023-04-29T05:44:48;15.13;;;11.10;;
12312;SDS011;6220;53.580;9.758;2023-04-29T05:47:13;14.20;;;10.33;;
12312;SDS011;6220;53.580;9.758;2023-04-29T05:49:39;16.03;;;11.30;;
12312;SDS011;6220;53.580;9.758;2023-04-29T05:52:04;14.80;;;11.00;;
12312;SDS011;6220;53.580;9.758;2023-04-29T05:54:31;14.57;;;11.17;;
12312;SDS011;6220;53.580;9.758;2023-04-29T05:56:57;15.77;;;11.03;;
12312;SDS011;6220;53.580;9.758;2023-04-29T05:59:23;13.77;;;10.77;;
12312;SDS011;6220;53.580;9.758;2023-04-29T06:01:48;13.17;;;11.27;;
12312;SDS011;6220;53.580;9.758;2023-04-29T06:04:14;17.50;;;10.80;;
12312;SDS011;6220;53.580;9.758;2023-04-29T06:06:39;15.57;;;11.90;;
12312;SDS011;6220;53.580;9.758;2023-04-29T06:09:04;12.43;;;10.20;;
12312;SDS011;6220;53.580;9.758;2023-04-29T06:11:30;14.53;;;10.67;;
12312;SDS011;6220;53.580;9.758;2023-04-29T06:13:55;13.40;;;10.80;;
12312;SDS011;6220;53.580;9.758;2023-04-29T06:16:21;17.77;;;10.50;;
12312;SDS011;6220;53.580;9.758;2023-04-29T06:18:47;12.97;;;10.87;;
12312;SDS011;6220;53.580;9.758;2023-04-29T06:21:12;16.00;;;10.80;;
12312;SDS011;6220;53.580;9.758;2023-04-29T06:23:38;13.07;;;10.13;;
12312;SDS011;6220;53.580;9.758;2023-04-29T06:26:04;12.47;;;10.57;;
12312;SDS011;6220;53.580;9.758;2023-04-29T06:28:29;12.00;;;10.40;;
12312;SDS011;6220;53.580;9.758;2023-04-29T06:30:55;13.73;;;9.70;;
12312;SDS011;6220;53.580;9.758;2023-04-29T06:33:20;14.93;;;9.77;;
12312;SDS011;6220;53.580;9.758;2023-04-29T06:35:46;16.67;;;10.03;;
12312;SDS011;6220;53.580;9.758;2023-04-29T06:38:11;16.43;;;10.07;;
12312;SDS011;6220;53.580;9.758;2023-04-29T06:40:36;13.90;;;10.03;;
12312;SDS011;6220;53.580;9.758;2023-04-29T06:43:02;13.63;;;10.40;;
12312;SDS011;6220;53.580;9.758;2023-04-29T06:45:28;12.87;;;9.90;;
12312;SDS011;6220;53.580;9.758;2023-04-29T06:47:54;15.67;;;10.70;;
12312;SDS011;6220;53.580;9.758;2023-04-29T06:50:19;17.03;;;10.33;;
12312;SDS011;6220;53.580;9.758;2023-04-29T06:52:45;17.00;;;10.80;;
12312;SDS011;6220;53.580;9.758;2023-04-29T06:55:10;13.23;;;10.03;;
12312;SDS011;6220;53.580;9.758;2023-04-29T06:57:36;15.00;;;9.47;;
12312;SDS011;6220;53.580;9.758;2023-04-29T07:00:03;15.47;;;10.13;;
12312;SDS011;6220;53.580;9.758;2023-04-29T07:02:29;15.07;;;10.00;;
12312;SDS011;6220;53.580;9.758;2023-04-29T07:04:54;14.30;;;10.40;;
12312;SDS011;6220;53.580;9.758;2023-04-29T07:07:20;14.53;;;10.83;;
12312;SDS011;6220;53.580;9.758;2023-04-29T07:09:45;14.90;;;9.67;;
12312;SDS011;6220;53.580;9.758;2023-04-29T07:12:10;13.90;;;9.60;;
12312;SDS011;6220;53.580;9.758;2023-04-29T07:14:36;13.83;;;9.80;;
12312;SDS011;6220;53.580;9.758;2023-04-29T07:17:01;12.73;;;8.87;;
12312;SDS011;6220;53.580;9.758;2023-04-29T07:19:27;13.33;;;9.33;;
12312;SDS011;6220;53.580;9.758;2023-04-29T07:21:52;10.90;;;9.40;;
12312;SDS011;6220;53.580;9.758;2023-04-29T07:24:17;13.33;;;9.23;;
12312;SDS011;6220;53.580;9.758;2023-04-29T07:26:43;12.37;;;9.03;;
12312;SDS011;6220;53.580;9.758;2023-04-29T07:29:09;11.50;;;8.70;;
12312;SDS011;6220;53.580;9.758;2023-04-29T07:31:34;12.07;;;9.37;;
12312;SDS011;6220;53.580;9.758;2023-04-29T07:34:00;11.20;;;8.07;;
12312;SDS011;6220;53.580;9.758;2023-04-29T07:36:25;9.33;;;7.60;;
12312;SDS011;6220;53.580;9.758;2023-04-29T07:38:52;11.10;;;7.30;;
12312;SDS011;6220;53.580;9.758;2023-04-29T07:41:18;10.97;;;7.33;;
12312;SDS011;6220;53.580;9.758;2023-04-29T07:43:43;11.07;;;6.83;;
12312;SDS011;6220;53.580;9.758;2023-04-29T07:46:09;10.50;;;6.83;;
12312;SDS011;6220;53.580;9.758;2023-04-29T07:48:38;10.10;;;6.57;;
12312;SDS011;6220;53.580;9.758;2023-04-29T07:51:04;9.60;;;6.43;;
12312;SDS011;6220;53.580;9.758;2023-04-29T07:53:30;12.43;;;6.97;;
12312;SDS011;6220;53.580;9.758;2023-04-29T07:55:55;7.50;;;6.10;;
12312;SDS011;6220;53.580;9.758;2023-04-29T07:58:21;9.70;;;6.80;;
12312;SDS011;6220;53.580;9.758;2023-04-29T08:00:46;12.47;;;6.80;;
12312;SDS011;6220;53.580;9.758;2023-04-29T08:03:12;8.87;;;6.57;;
12312;SDS011;6220;53.580;9.758;2023-04-29T08:05:37;9.07;;;6.17;;
12312;SDS011;6220;53.580;9.758;2023-04-29T08:08:03;11.27;;;6.30;;
12312;SDS011;6220;53.580;9.758;2023-04-29T08:10:28;10.03;;;6.43;;
12312;SDS011;6220;53.580;9.758;2023-04-29T08:12:54;10.77;;;6.53;;
12312;SDS011;6220;53.580;9.758;2023-04-29T08:15:20;8.97;;;7.40;;
12312;SDS011;6220;53.580;9.758;2023-04-29T08:17:45;7.67;;;6.40;;
12312;SDS011;6220;53.580;9.758;2023-04-29T08:20:11;11.50;;;7.53;;
12312;SDS011;6220;53.580;9.758;2023-04-29T08:22:36;13.80;;;7.60;;
12312;SDS011;6220;53.580;9.758;2023-04-29T08:25:02;8.63;;;6.87;;
12312;SDS011;6220;53.580;9.758;2023-04-29T08:27:29;8.10;;;7.30;;
12312;SDS011;6220;53.580;9.758;2023-04-29T08:29:55;9.77;;;7.07;;
12312;SDS011;6220;53.580;9.758;2023-04-29T08:32:20;9.00;;;6.90;;
12312;SDS011;6220;53.580;9.758;2023-04-29T08:34:46;10.40;;;6.03;;
12312;SDS011;6220;53.580;9.758;2023-04-29T08:37:12;10.10;;;7.07;;
12312;SDS011;6220;53.580;9.758;2023-04-29T08:39:37;11.20;;;6.70;;
12312;SDS011;6220;53.580;9.758;2023-04-29T08:42:08;10.80;;;7.43;;
12312;SDS011;6220;53.580;9.758;2023-04-29T08:44:35;10.90;;;6.67;;
12312;SDS011;6220;53.580;9.758;2023-04-29T08:47:01;11.57;;;7.63;;
12312;SDS011;6220;53.580;9.758;2023-04-29T08:49:27;9.53;;;6.60;;
12312;SDS011;6220;53.580;9.758;2023-04-29T08:51:53;8.33;;;6.67;;
12312;SDS011;6220;53.580;9.758;2023-04-29T08:54:18;9.17;;;6.93;;
12312;SDS011;6220;53.580;9.758;2023-04-29T08:56:44;8.93;;;6.23;;
12312;SDS011;6220;53.580;9.758;2023-04-29T08:59:11;10.30;;;7.10;;
12312;SDS011;6220;53.580;9.758;2023-04-29T09:01:41;8.93;;;7.13;;
12312;SDS011;6220;53.580;9.758;2023-04-29T09:06:34;8.10;;;7.10;;
12312;SDS011;6220;53.580;9.758;2023-04-29T09:08:59;9.53;;;6.60;;
12312;SDS011;6220;53.580;9.758;2023-04-29T09:11:26;9.87;;;6.83;;
12312;SDS011;6220;53.580;9.758;2023-04-29T09:13:57;12.20;;;6.43;;
12312;SDS011;6220;53.580;9.758;2023-04-29T09:16:26;8.23;;;7.17;;
12312;SDS011;6220;53.580;9.758;2023-04-29T09:18:54;9.27;;;6.23;;
12312;SDS011;6220;53.580;9.758;2023-04-29T09:21:21;8.50;;;6.10;;
12312;SDS011;6220;53.580;9.758;2023-04-29T09:23:48;10.00;;;6.77;;
12312;SDS011;6220;53.580;9.758;2023-04-29T09:26:14;8.40;;;5.80;;
12312;SDS011;6220;53.580;9.758;2023-04-29T09:28:40;8.57;;;6.03;;
12312;SDS011;6220;53.580;9.758;2023-04-29T09:31:08;8.17;;;6.17;;
12312;SDS011;6220;53.580;9.758;2023-04-29T09:33:51;9.27;;;6.17;;
12312;SDS011;6220;53.580;9.758;2023-04-29T09:36:36;9.47;;;5.70;;
12312;SDS011;6220;53.580;9.758;2023-04-29T09:39:03;8.80;;;5.73;;
12312;SDS011;6220;53.580;9.758;2023-04-29T09:41:30;6.47;;;5.87;;
12312;SDS011;6220;53.580;9.758;2023-04-29T09:44:02;8.37;;;6.30;;
12312;SDS011;6220;53.580;9.758;2023-04-29T09:46:29;8.13;;;6.60;;
12312;SDS011;6220;53.580;9.758;2023-04-29T09:48:56;8.40;;;6.13;;
12312;SDS011;6220;53.580;9.758;2023-04-29T09:51:22;7.87;;;6.10;;
12312;SDS011;6220;53.580;9.758;2023-04-29T09:53:48;8.80;;;5.87;;
12312;SDS011;6220;53.580;9.758;2023-04-29T09:56:13;7.77;;;5.43;;
12312;SDS011;6220;53.580;9.758;2023-04-29T09:58:38;9.00;;;6.07;;
12312;SDS011;6220;53.580;9.758;2023-04-29T10:01:04;7.30;;;6.37;;
12312;SDS011;6220;53.580;9.758;2023-04-29T10:03:31;6.90;;;5.93;;
12312;SDS011;6220;53.580;9.758;2023-04-29T10:06:01;8.13;;;6.37;;
12312;SDS011;6220;53.580;9.758;2023-04-29T10:08:29;9.33;;;6.43;;
12312;SDS011;6220;53.580;9.758;2023-04-29T10:10:56;11.43;;;6.97;;
12312;SDS011;6220;53.580;9.758;2023-04-29T10:13:24;9.17;;;6.50;;
12312;SDS011;6220;53.580;9.758;2023-04-29T10:16:02;11.17;;;6.30;;
12312;SDS011;6220;53.580;9.758;2023-04-29T10:18:35;8.17;;;6.50;;
12312;SDS011;6220;53.580;9.758;2023-04-29T10:21:01;8.90;;;7.00;;
12312;SDS011;6220;53.580;9.758;2023-04-29T10:23:27;11.83;;;6.57;;
12312;SDS011;6220;53.580;9.758;2023-04-29T10:25:54;7.13;;;6.43;;
12312;SDS011;6220;53.580;9.758;2023-04-29T10:28:21;10.50;;;6.77;;
12312;SDS011;6220;53.580;9.758;2023-04-29T10:30:49;7.73;;;5.67;;
12312;SDS011;6220;53.580;9.758;2023-04-29T10:33:15;7.27;;;6.23;;
12312;SDS011;6220;53.580;9.758;2023-04-29T10:35:42;8.77;;;6.20;;
12312;SDS011;6220;53.580;9.758;2023-04-29T10:38:28;12.83;;;6.63;;
12312;SDS011;6220;53.580;9.758;2023-04-29T10:40:57;9.23;;;5.90;;
12312;SDS011;6220;53.580;9.758;2023-04-29T10:43:22;16.53;;;6.63;;
12312;SDS011;6220;53.580;9.758;2023-04-29T10:45:48;9.70;;;6.23;;
12312;SDS011;6220;53.580;9.758;2023-04-29T10:48:15;10.43;;;7.10;;
12312;SDS011;6220;53.580;9.758;2023-04-29T10:53:11;11.27;;;7.73;;
12312;SDS011;6220;53.580;9.758;2023-04-29T10:55:38;11.47;;;8.00;;
12312;SDS011;6220;53.580;9.758;2023-04-29T10:58:04;13.13;;;8.07;;
12312;SDS011;6220;53.580;9.758;2023-04-29T11:00:30;11.33;;;6.90;;
12312;SDS011;6220;53.580;9.758;2023-04-29T11:02:57;12.10;;;7.77;;
12312;SDS011;6220;53.580;9.758;2023-04-29T11:05:34;9.57;;;7.23;;
12312;SDS011;6220;53.580;9.758;2023-04-29T11:10:36;8.90;;;7.40;;
12312;SDS011;6220;53.580;9.758;2023-04-29T11:15:47;10.60;;;7.50;;
12312;SDS011;6220;53.580;9.758;2023-04-29T11:18:12;7.93;;;7.10;;
12312;SDS011;6220;53.580;9.758;2023-04-29T11:23:29;13.30;;;8.80;;
12312;SDS011;6220;53.580;9.758;2023-04-29T11:25:55;12.17;;;6.93;;
12312;SDS011;6220;53.580;9.758;2023-04-29T11:28:23;9.83;;;7.00;;
12312;SDS011;6220;53.580;9.758;2023-04-29T11:30:49;10.20;;;7.80;;
12312;SDS011;6220;53.580;9.758;2023-04-29T11:33:16;11.30;;;7.77;;
12312;SDS011;6220;53.580;9.758;2023-04-29T11:35:44;9.67;;;7.00;;
12312;SDS011;6220;53.580;9.758;2023-04-29T11:38:09;11.23;;;7.53;;
12312;SDS011;6220;53.580;9.758;2023-04-29T11:40:40;11.03;;;8.27;;
12312;SDS011;6220;53.580;9.758;2023-04-29T11:43:18;9.70;;;7.00;;
12312;SDS011;6220;53.580;9.758;2023-04-29T11:45:44;8.63;;;7.47;;
12312;SDS011;6220;53.580;9.758;2023-04-29T11:48:20;8.97;;;8.00;;
12312;SDS011;6220;53.580;9.758;2023-04-29T11:50:57;10.40;;;7.43;;
12312;SDS011;6220;53.580;9.758;2023-04-29T11:53:23;10.43;;;7.23;;
12312;SDS011;6220;53.580;9.758;2023-04-29T11:55:52;7.77;;;5.93;;
12312;SDS011;6220;53.580;9.758;2023-04-29T11:58:19;8.53;;;6.23;;
12312;SDS011;6220;53.580;9.758;2023-04-29T12:00:48;6.10;;;5.50;;
12312;SDS011;6220;53.580;9.758;2023-04-29T12:05:45;7.43;;;5.23;;
12312;SDS011;6220;53.580;9.758;2023-04-29T12:08:23;6.50;;;5.63;;
12312;SDS011;6220;53.580;9.758;2023-04-29T12:10:50;9.43;;;4.80;;
12312;SDS011;6220;53.580;9.758;2023-04-29T12:13:16;6.50;;;4.90;;
12312;SDS011;6220;53.580;9.758;2023-04-29T12:15:43;6.33;;;5.00;;
12312;SDS011;6220;53.580;9.758;2023-04-29T12:18:13;6.20;;;4.80;;
12312;SDS011;6220;53.580;9.758;2023-04-29T12:20:39;6.00;;;4.23;;
12312;SDS011;6220;53.580;9.758;2023-04-29T12:23:14;5.93;;;4.00;;
12312;SDS011;6220;53.580;9.758;2023-04-29T12:25:50;10.47;;;4.43;;
12312;SDS011;6220;53.580;9.758;2023-04-29T12:28:17;9.00;;;5.10;;
12312;SDS011;6220;53.580;9.758;2023-04-29T12:30:44;9.83;;;5.03;;
12312;SDS011;6220;53.580;9.758;2023-04-29T12:33:14;8.97;;;5.43;;
12312;SDS011;6220;53.580;9.758;2023-04-29T12:35:42;7.20;;;4.87;;
12312;SDS011;6220;53.580;9.758;2023-04-29T12:38:08;7.60;;;5.37;;
12312;SDS011;6220;53.580;9.758;2023-04-29T12:40:33;6.57;;;4.77;;
12312;SDS011;6220;53.580;9.758;2023-04-29T12:43:05;7.90;;;4.23;;
12312;SDS011;6220;53.580;9.758;2023-04-29T12:45:32;7.70;;;5.57;;
12312;SDS011;6220;53.580;9.758;2023-04-29T12:47:58;8.27;;;5.30;;
12312;SDS011;6220;53.580;9.758;2023-04-29T12:50:31;7.07;;;4.80;;
12312;SDS011;6220;53.580;9.758;2023-04-29T12:53:01;9.63;;;4.77;;
12312;SDS011;6220;53.580;9.758;2023-04-29T12:55:28;5.30;;;4.50;;
12312;SDS011;6220;53.580;9.758;2023-04-29T12:57:54;6.97;;;4.53;;
12312;SDS011;6220;53.580;9.758;2023-04-29T13:00:19;6.77;;;4.20;;
12312;SDS011;6220;53.580;9.758;2023-04-29T13:02:45;6.23;;;3.83;;
12312;SDS011;6220;53.580;9.758;2023-04-29T13:05:11;5.60;;;3.83;;
12312;SDS011;6220;53.580;9.758;2023-04-29T13:07:36;4.73;;;3.10;;
12312;SDS011;6220;53.580;9.758;2023-04-29T13:10:03;6.43;;;3.40;;
12312;SDS011;6220;53.580;9.758;2023-04-29T13:12:30;4.60;;;3.70;;
12312;SDS011;6220;53.580;9.758;2023-04-29T13:14:56;3.13;;;2.13;;
12312;SDS011;6220;53.580;9.758;2023-04-29T13:17:21;4.97;;;3.00;;
12312;SDS011;6220;53.580;9.758;2023-04-29T13:19:47;4.77;;;2.47;;
12312;SDS011;6220;53.580;9.758;2023-04-29T13:22:12;4.37;;;2.50;;
12312;SDS011;6220;53.580;9.758;2023-04-29T13:24:37;4.27;;;2.13;;
12312;SDS011;6220;53.580;9.758;2023-04-29T13:27:03;4.10;;;2.50;;
12312;SDS011;6220;53.580;9.758;2023-04-29T13:29:28;2.90;;;2.30;;
12312;SDS011;6220;53.580;9.758;2023-04-29T13:31:54;4.40;;;2.80;;
12312;SDS011;6220;53.580;9.758;2023-04-29T13:34:20;5.73;;;2.80;;
12312;SDS011;6220;53.580;9.758;2023-04-29T13:36:45;3.67;;;2.40;;
12312;SDS011;6220;53.580;9.758;2023-04-29T13:39:10;5.80;;;2.90;;
12312;SDS011;6220;53.580;9.758;2023-04-29T13:41:36;5.40;;;3.03;;
12312;SDS011;6220;53.580;9.758;2023-04-29T13:44:01;7.77;;;3.30;;
12312;SDS011;6220;53.580;9.758;2023-04-29T13:46:27;4.00;;;3.50;;
12312;SDS011;6220;53.580;9.758;2023-04-29T13:48:52;8.13;;;3.53;;
12312;SDS011;6220;53.580;9.758;2023-04-29T13:51:18;7.03;;;3.37;;
12312;SDS011;6220;53.580;9.758;2023-04-29T13:53:43;5.07;;;3.23;;
12312;SDS011;6220;53.580;9.758;2023-04-29T13:56:09;8.70;;;3.60;;
12312;SDS011;6220;53.580;9.758;2023-04-29T13:58:34;7.70;;;3.40;;
12312;SDS011;6220;53.580;9.758;2023-04-29T14:01:00;6.10;;;3.33;;
12312;SDS011;6220;53.580;9.758;2023-04-29T14:03:25;5.90;;;3.00;;
12312;SDS011;6220;53.580;9.758;2023-04-29T14:05:51;4.13;;;3.03;;
12312;SDS011;6220;53.580;9.758;2023-04-29T14:08:16;4.20;;;3.27;;
12312;SDS011;6220;53.580;9.758;2023-04-29T14:10:42;4.80;;;3.23;;
12312;SDS011;6220;53.580;9.758;2023-04-29T14:13:07;4.00;;;2.93;;
12312;SDS011;6220;53.580;9.758;2023-04-29T14:15:33;9.63;;;3.63;;
12312;SDS011;6220;53.580;9.758;2023-04-29T14:18:00;4.87;;;2.93;;
12312;SDS011;6220;53.580;9.758;2023-04-29T14:20:26;5.37;;;3.23;;
12312;SDS011;6220;53.580;9.758;2023-04-29T14:22:51;3.77;;;3.10;;
12312;SDS011;6220;53.580;9.758;2023-04-29T14:25:17;5.00;;;2.73;;
12312;SDS011;6220;53.580;9.758;2023-04-29T14:27:42;3.60;;;2.60;;
12312;SDS011;6220;53.580;9.758;2023-04-29T14:30:07;3.20;;;2.20;;
12312;SDS011;6220;53.580;9.758;2023-04-29T14:32:33;3.47;;;2.37;;
12312;SDS011;6220;53.580;9.758;2023-04-29T14:34:58;2.13;;;1.90;;
12312;SDS011;6220;53.580;9.758;2023-04-29T14:37:24;2.53;;;1.80;;
12312;SDS011;6220;53.580;9.758;2023-04-29T14:39:50;6.20;;;2.07;;
12312;SDS011;6220;53.580;9.758;2023-04-29T14:42:16;3.10;;;2.30;;
12312;SDS011;6220;53.580;9.758;2023-04-29T14:44:42;4.60;;;2.83;;
12312;SDS011;6220;53.580;9.758;2023-04-29T14:47:08;3.40;;;2.23;;
12312;SDS011;6220;53.580;9.758;2023-04-29T14:49:33;4.40;;;1.83;;
12312;SDS011;6220;53.580;9.758;2023-04-29T14:51:59;3.93;;;2.33;;
12312;SDS011;6220;53.580;9.758;2023-04-29T14:54:25;2.73;;;1.67;;
12312;SDS011;6220;53.580;9.758;2023-04-29T14:56:51;3.03;;;1.50;;
12312;SDS011;6220;53.580;9.758;2023-04-29T14:59:17;1.60;;;1.47;;
12312;SDS011;6220;53.580;9.758;2023-04-29T15:01:42;4.40;;;1.80;;
12312;SDS011;6220;53.580;9.758;2023-04-29T15:04:08;3.53;;;2.23;;
12312;SDS011;6220;53.580;9.758;2023-04-29T15:06:33;3.40;;;2.30;;
12312;SDS011;6220;53.580;9.758;2023-04-29T15:09:00;4.73;;;2.43;;
12312;SDS011;6220;53.580;9.758;2023-04-29T15:11:26;3.30;;;2.07;;
12312;SDS011;6220;53.580;9.758;2023-04-29T15:13:51;6.57;;;2.20;;